Time;durP1;ratioP1;P1;durP2;ratioP2;P2;SDS_P1;SDS_P2;PMS_P1;PMS_P2;Temp;Humidity;BMP_temperature;BMP_pressure;BME280_temperature;BME280_humidity;BME280_pressure;Samples;Min_cycle;Max_cycle;Signal;HPM_P1;HPM_P2
2022/09/03 00:01:18;;;;;;;;;1.00;1.00;;;;;20.92;70.48;100122.56;5018105;28;45465;-67
2022/09/03 00:03:54;;;;;;;;;5.67;4.33;;;;;20.85;71.36;100114.72;5017926;28;45336;-67
2022/09/03 00:06:45;;;;;;;;;5.00;3.33;;;;;20.89;71.43;100117.31;5016018;28;45490;-67
2022/09/03 00:09:30;;;;;;;;;5.00;4.00;;;;;20.85;71.60;100117.38;5017385;28;45419;-68
2022/09/03 00:12:10;;;;;;;;;3.00;3.00;;;;;20.77;72.65;100110.44;5014057;28;45552;-67
2022/09/03 00:14:45;;;;;;;;;4.00;4.00;;;;;20.68;72.10;100095.56;5038754;28;45587;-67
2022/09/03 00:17:17;;;;;;;;;3.67;3.00;;;;;20.72;72.73;100113.19;5015516;28;45377;-67
2022/09/03 00:19:55;;;;;;;;;4.00;3.00;;;;;20.45;72.76;100075.63;5017688;28;45344;-67
2022/09/03 00:22:27;;;;;;;;;4.00;4.00;;;;;20.53;72.47;100091.41;5016143;28;45321;-67
2022/09/03 00:24:55;;;;;;;;;3.00;3.00;;;;;20.57;72.29;100098.41;5015969;28;46211;-67
2022/09/03 00:27:25;;;;;;;;;4.00;3.00;;;;;20.63;72.15;100102.75;5017661;28;45507;-67
2022/09/03 00:30:11;;;;;;;;;4.00;4.00;;;;;20.68;71.58;100108.84;5017564;28;45605;-67
2022/09/03 00:32:40;;;;;;;;;3.00;3.00;;;;;20.61;71.50;100085.97;5015367;28;45387;-67
2022/09/03 00:35:16;;;;;;;;;5.00;3.67;;;;;20.62;71.64;100098.34;5017277;28;45393;-67
2022/09/03 00:37:43;;;;;;;;;4.00;3.00;;;;;20.59;71.00;100085.13;5015561;28;45984;-67
2022/09/03 00:40:35;;;;;;;;;4.67;4.00;;;;;20.65;71.22;100095.63;5017239;28;45531;-67
2022/09/03 00:43:33;;;;;;;;;4.33;3.33;;;;;20.68;70.98;100103.53;5015486;28;45336;-67
2022/09/03 00:46:37;;;;;;;;;4.00;3.67;;;;;20.67;71.22;100099.13;5009654;28;45466;-67
2022/09/03 00:49:19;;;;;;;;;4.00;3.33;;;;;20.69;71.04;100093.78;5014091;28;45675;-66
2022/09/03 00:52:03;;;;;;;;;4.00;4.00;;;;;20.69;70.67;100091.13;5015835;28;45331;-67
2022/09/03 00:54:46;;;;;;;;;5.33;5.33;;;;;20.56;70.86;100091.34;5016357;28;45376;-66
2022/09/03 00:57:47;;;;;;;;;3.67;3.00;;;;;20.59;70.58;100093.09;5015209;28;46067;-67
2022/09/03 01:00:18;;;;;;;;;4.00;3.00;;;;;20.48;70.41;100071.16;5016640;28;45416;-67
2022/09/03 01:03:11;;;;;;;;;4.67;4.00;;;;;20.66;69.69;100090.28;5017005;28;45512;-67
2022/09/03 01:05:45;;;;;;;;;3.00;2.67;;;;;20.69;69.59;100094.69;5014674;28;45461;-67
2022/09/03 01:08:23;;;;;;;;;3.00;3.00;;;;;20.72;69.85;100099.94;5016648;28;46305;-67
2022/09/03 01:10:58;;;;;;;;;4.67;4.33;;;;;20.75;69.54;100099.88;5016990;28;45454;-67
2022/09/03 01:13:42;;;;;;;;;3.00;3.00;;;;;20.66;69.43;100070.84;5015210;28;45519;-66
2022/09/03 01:16:13;;;;;;;;;4.00;4.00;;;;;20.74;69.59;100078.66;5039743;28;45654;-67
2022/09/03 01:18:54;;;;;;;;;5.67;4.00;;;;;20.81;70.28;100090.91;5014372;28;45536;-67
2022/09/03 01:21:19;;;;;;;;;5.00;5.00;;;;;20.82;70.23;100087.34;5014660;28;45320;-67
2022/09/03 01:23:53;;;;;;;;;4.00;4.00;;;;;20.81;70.45;100080.28;5016720;28;46484;-66
2022/09/03 01:26:40;;;;;;;;;4.00;4.00;;;;;20.78;70.47;100077.69;5014201;28;45345;-67
2022/09/03 01:29:21;;;;;;;;;4.67;4.00;;;;;20.68;70.03;100065.53;5015843;28;45451;-67
2022/09/03 01:32:14;;;;;;;;;5.00;5.00;;;;;20.74;70.59;100084.84;5018073;28;45300;-67
2022/09/03 01:35:09;;;;;;;;;5.00;3.00;;;;;20.75;70.62;100086.59;5016901;28;45489;-67
2022/09/03 01:37:47;;;;;;;;;3.33;3.33;;;;;20.75;70.91;100083.97;5013834;28;45426;-67
2022/09/03 01:40:27;;;;;;;;;4.00;4.00;;;;;20.64;71.38;100067.34;5018077;28;45408;-67
2022/09/03 01:43:01;;;;;;;;;5.00;4.33;;;;;20.72;71.85;100084.00;5018227;28;45349;-67
2022/09/03 01:45:47;;;;;;;;;5.67;4.00;;;;;20.68;72.28;100090.28;5017993;28;45554;-67
2022/09/03 01:48:37;;;;;;;;;5.00;5.00;;;;;20.70;72.07;100083.16;5018205;28;45320;-67
2022/09/03 01:51:18;;;;;;;;;6.00;6.00;;;;;20.73;71.77;100090.16;5017618;28;45491;-67
2022/09/03 01:54:38;;;;;;;;;5.00;5.00;;;;;20.74;71.48;100078.66;5017776;28;45415;-67
2022/09/03 01:57:23;;;;;;;;;3.67;3.33;;;;;20.66;71.98;100073.50;4956514;28;45497;-67
2022/09/03 01:59:59;;;;;;;;;6.00;4.67;;;;;20.56;72.63;100064.81;5013816;28;45647;-67
2022/09/03 02:02:27;;;;;;;;;4.00;3.67;;;;;20.65;71.86;100069.09;5017568;28;45387;-67
2022/09/03 02:05:00;;;;;;;;;5.00;4.00;;;;;20.52;72.15;100051.63;5017968;28;45506;-67
2022/09/03 02:07:42;;;;;;;;;6.00;5.00;;;;;20.62;71.87;100070.03;5017732;28;45224;-67
2022/09/03 02:10:18;;;;;;;;;6.00;5.00;;;;;20.50;71.89;100059.63;5016368;28;45704;-67
2022/09/03 02:12:58;;;;;;;;;6.00;5.67;;;;;20.59;71.75;100072.75;5017426;28;45443;-67
2022/09/03 02:15:24;;;;;;;;;4.67;4.67;;;;;20.56;71.50;100066.59;5017732;28;45363;-67
2022/09/03 02:17:55;;;;;;;;;7.00;6.00;;;;;20.47;71.86;100062.31;5016640;28;46042;-67
2022/09/03 02:20:25;;;;;;;;;7.33;6.67;;;;;20.43;72.48;100064.16;5017633;28;45479;-67
2022/09/03 02:22:53;;;;;;;;;4.67;4.67;;;;;20.35;73.10;100058.13;5017769;28;45489;-67
2022/09/03 02:25:20;;;;;;;;;5.00;5.00;;;;;20.26;72.86;100055.63;5017362;28;45331;-67
2022/09/03 02:27:48;;;;;;;;;5.33;4.67;;;;;20.18;73.22;100052.25;5032734;28;45526;-67
2022/09/03 02:30:14;;;;;;;;;5.00;5.00;;;;;20.13;73.22;100044.34;5017727;28;45605;-67
2022/09/03 02:32:40;;;;;;;;;6.67;6.00;;;;;20.20;73.37;100063.69;5017022;28;46160;-67
2022/09/03 02:35:06;;;;;;;;;6.00;5.00;;;;;20.05;73.02;100048.91;5017269;28;45407;-67
2022/09/03 02:37:31;;;;;;;;;6.00;5.00;;;;;19.97;73.07;100043.72;5016225;28;45343;-67
2022/09/03 02:39:57;;;;;;;;;6.00;6.00;;;;;19.98;73.45;100048.16;5017349;28;45224;-67
2022/09/03 02:42:23;;;;;;;;;5.00;5.00;;;;;19.91;73.51;100038.53;5016080;28;47295;-67
2022/09/03 02:44:59;;;;;;;;;7.00;5.00;;;;;19.98;73.97;100056.09;5017234;28;45611;-67
2022/09/03 02:47:30;;;;;;;;;6.00;5.00;;;;;20.06;73.44;100070.09;5017039;28;45306;-67
2022/09/03 02:49:56;;;;;;;;;4.33;4.00;;;;;20.06;73.24;100058.63;5017634;28;45321;-67
2022/09/03 02:52:22;;;;;;;;;5.00;5.00;;;;;20.04;73.22;100050.69;5016744;28;45341;-67
2022/09/03 02:54:47;;;;;;;;;5.00;5.00;;;;;19.97;73.48;100029.59;5016574;28;45791;-67
2022/09/03 02:57:15;;;;;;;;;6.00;6.00;;;;;20.11;73.29;100048.81;5016999;28;45824;-67
2022/09/03 02:59:43;;;;;;;;;7.00;5.00;;;;;20.14;74.08;100062.03;5017104;28;45383;-67
2022/09/03 03:02:10;;;;;;;;;6.33;6.00;;;;;20.10;74.21;100068.28;5016717;28;46246;-67
2022/09/03 03:04:36;;;;;;;;;6.33;5.67;;;;;20.11;74.61;100067.38;5016842;28;45364;-67
2022/09/03 03:07:01;;;;;;;;;6.00;5.00;;;;;20.06;74.84;100059.50;5016985;28;45511;-67
2022/09/03 03:09:27;;;;;;;;;6.00;6.00;;;;;19.96;74.77;100044.66;5016136;28;45245;-67
2022/09/03 03:11:54;;;;;;;;;7.00;7.00;;;;;19.98;74.18;100042.84;5016985;28;45695;-67
2022/09/03 03:14:21;;;;;;;;;7.00;6.33;;;;;19.97;74.33;100041.06;5016747;28;45442;-67
2022/09/03 03:16:47;;;;;;;;;7.67;6.33;;;;;20.05;74.85;100060.41;5016625;28;45387;-67
2022/09/03 03:19:13;;;;;;;;;5.00;4.67;;;;;20.05;74.94;100067.47;5015344;28;45490;-67
2022/09/03 03:21:39;;;;;;;;;6.00;5.00;;;;;20.05;74.42;100051.56;5015220;28;45641;-67
2022/09/03 03:24:04;;;;;;;;;6.00;6.00;;;;;20.06;74.29;100048.88;5016648;28;45496;-67
2022/09/03 03:26:30;;;;;;;;;7.00;6.67;;;;;20.09;74.53;100037.34;5015548;28;45356;-67
2022/09/03 03:28:58;;;;;;;;;6.33;6.00;;;;;20.19;74.52;100046.03;5017037;28;45294;-67
2022/09/03 03:31:24;;;;;;;;;5.67;5.00;;;;;20.30;74.71;100061.75;5016644;28;46266;-67
2022/09/03 03:34:01;;;;;;;;;6.33;6.00;;;;;20.28;73.86;100067.09;5016436;28;45374;-67
2022/09/03 03:36:31;;;;;;;;;6.00;6.00;;;;;20.17;73.73;100043.38;5016851;28;45562;-67
2022/09/03 03:38:58;;;;;;;;;7.00;7.00;;;;;20.30;74.20;100061.75;5016882;28;45323;-67
2022/09/03 03:41:32;;;;;;;;;6.67;6.00;;;;;20.15;74.62;100036.38;5014798;28;45546;-67
2022/09/03 03:44:01;;;;;;;;;6.67;6.00;;;;;20.28;74.63;100053.81;5016609;28;45225;-67
2022/09/03 03:46:33;;;;;;;;;6.67;5.67;;;;;20.29;74.66;100054.69;5016706;28;45205;-67
2022/09/03 03:48:58;;;;;;;;;5.67;5.33;;;;;20.12;75.59;100037.31;5017730;28;45520;-67
2022/09/03 03:51:24;;;;;;;;;6.67;6.67;;;;;20.09;74.33;100028.53;5019610;28;45519;-67
2022/09/03 03:53:54;;;;;;;;;5.67;5.67;;;;;20.27;74.34;100046.75;5019732;28;45303;-67
2022/09/03 03:56:20;;;;;;;;;6.33;6.00;;;;;20.18;74.52;100031.03;5019593;28;45570;-67
2022/09/03 03:58:47;;;;;;;;;4.67;4.00;;;;;20.18;74.26;100015.13;5019625;28;45645;-67
2022/09/03 04:01:15;;;;;;;;;7.00;6.00;;;;;20.34;74.84;100047.53;5018102;28;45436;-67
2022/09/03 04:03:41;;;;;;;;;7.00;7.00;;;;;20.19;74.64;100019.50;5019430;28;45511;-67
2022/09/03 04:06:08;;;;;;;;;6.67;6.33;;;;;20.27;74.15;100020.22;5019636;28;45284;-67
2022/09/03 04:08:39;;;;;;;;;6.67;6.00;;;;;20.33;74.59;100036.03;5019696;28;45380;-67
2022/09/03 04:11:08;;;;;;;;;6.33;6.33;;;;;20.41;73.82;100043.84;5019424;28;45308;-67
2022/09/03 04:13:36;;;;;;;;;7.67;6.67;;;;;20.42;74.13;100041.19;5019324;28;45324;-67
2022/09/03 04:16:09;;;;;;;;;7.00;6.00;;;;;20.32;73.85;100028.13;5019689;28;45438;-67
2022/09/03 04:18:35;;;;;;;;;5.67;5.67;;;;;20.41;74.18;100035.91;5018201;28;45280;-67
2022/09/03 04:21:03;;;;;;;;;7.00;7.00;;;;;20.41;74.11;100038.53;5019495;28;45426;-67
2022/09/03 04:23:33;;;;;;;;;7.00;6.00;;;;;20.36;73.65;100033.34;5019491;28;45299;-67
2022/09/03 04:25:59;;;;;;;;;5.00;5.00;;;;;20.24;74.06;100015.88;5019575;28;45434;-67
2022/09/03 04:28:25;;;;;;;;;7.00;7.00;;;;;20.17;74.17;100003.59;5019261;28;45458;-67
2022/09/03 04:30:51;;;;;;;;;8.00;8.00;;;;;20.33;74.15;100036.03;5018963;28;45994;-67
2022/09/03 04:33:17;;;;;;;;;7.67;7.00;;;;;20.32;74.54;100039.59;5018922;28;45490;-67
2022/09/03 04:35:43;;;;;;;;;6.33;6.33;;;;;20.23;74.41;100013.22;5019320;28;45238;-67
2022/09/03 04:38:09;;;;;;;;;6.00;5.00;;;;;20.32;74.60;100029.00;5019471;28;45547;-67
2022/09/03 04:40:34;;;;;;;;;7.00;6.67;;;;;20.21;74.59;100015.94;5019069;28;46500;-67
2022/09/03 04:43:00;;;;;;;;;5.67;5.67;;;;;20.11;74.76;99993.13;5019298;28;45300;-67
2022/09/03 04:45:27;;;;;;;;;5.33;5.33;;;;;20.33;74.43;100032.50;5019141;28;45644;-67
2022/09/03 04:48:00;;;;;;;;;6.00;5.00;;;;;20.20;74.40;100002.69;5019301;28;45446;-67
2022/09/03 04:50:26;;;;;;;;;7.33;7.00;;;;;20.18;75.06;100000.06;5034029;28;47131;-67
2022/09/03 04:52:55;;;;;;;;;7.00;6.33;;;;;20.26;74.57;100014.06;5018795;28;45645;-67
2022/09/03 04:55:21;;;;;;;;;8.00;6.33;;;;;20.19;74.46;100000.94;5018915;28;45490;-67
2022/09/03 04:57:47;;;;;;;;;8.33;7.67;;;;;20.30;75.11;100021.97;5018842;28;45473;-67
2022/09/03 05:00:16;;;;;;;;;6.00;5.67;;;;;20.25;74.79;100012.31;5017465;28;45349;-67
2022/09/03 05:02:45;;;;;;;;;7.00;6.00;;;;;20.29;74.69;100018.41;5018652;28;45562;-67
2022/09/03 05:05:11;;;;;;;;;8.00;6.00;;;;;20.31;74.66;100013.09;5017525;28;45494;-67
2022/09/03 05:07:37;;;;;;;;;7.00;6.33;;;;;20.21;74.73;100004.44;5018809;28;45388;-67
2022/09/03 05:10:19;;;;;;;;;7.33;7.00;;;;;20.34;74.72;100019.22;5018716;28;45492;-67
2022/09/03 05:12:56;;;;;;;;;8.00;6.00;;;;;20.18;74.60;99993.91;5018291;28;45293;-67
2022/09/03 05:15:22;;;;;;;;;7.00;6.67;;;;;20.17;75.02;100000.09;5018358;28;45447;-67
2022/09/03 05:17:51;;;;;;;;;7.67;7.00;;;;;20.17;75.38;100000.09;5017146;28;45597;-67
2022/09/03 05:20:16;;;;;;;;;6.00;6.00;;;;;20.00;75.74;99976.53;5017015;28;46829;-67
2022/09/03 05:22:42;;;;;;;;;7.00;7.00;;;;;20.10;76.11;100006.44;5018467;28;45469;-67
2022/09/03 05:25:08;;;;;;;;;6.00;6.00;;;;;20.10;75.83;100006.44;5018394;28;45415;-67
2022/09/03 05:27:33;;;;;;;;;6.67;6.67;;;;;19.88;75.73;99977.63;5018982;28;45433;-67
2022/09/03 05:29:59;;;;;;;;;7.00;7.00;;;;;20.13;75.33;100016.97;5018053;28;46291;-67
2022/09/03 05:32:26;;;;;;;;;7.00;7.00;;;;;19.93;75.44;99980.19;5016792;28;45359;-67
2022/09/03 05:34:52;;;;;;;;;6.33;5.67;;;;;19.97;75.36;99979.25;5017095;28;45474;-67
2022/09/03 05:37:17;;;;;;;;;7.00;6.67;;;;;20.10;74.97;100002.00;5016900;28;45355;-67
2022/09/03 05:39:43;;;;;;;;;5.33;5.33;;;;;20.13;75.44;100009.88;5017825;28;45701;-67
2022/09/03 05:42:12;;;;;;;;;6.67;6.00;;;;;20.12;75.13;100008.13;5017935;28;45359;-67
2022/09/03 05:44:37;;;;;;;;;8.00;8.00;;;;;20.15;75.36;100013.38;5016693;28;45501;-67
2022/09/03 05:47:03;;;;;;;;;6.33;6.00;;;;;20.15;75.35;100020.47;5018393;28;45486;-67
2022/09/03 05:49:29;;;;;;;;;7.33;6.33;;;;;20.14;75.51;100018.72;5018012;28;45368;-67
2022/09/03 05:51:55;;;;;;;;;9.67;7.33;;;;;20.03;75.94;100011.84;5017873;28;45506;-67
2022/09/03 05:54:20;;;;;;;;;8.00;8.00;;;;;19.96;75.77;99993.41;5017818;28;45498;-67
2022/09/03 05:56:46;;;;;;;;;7.33;7.00;;;;;19.99;75.70;99996.84;5017912;28;45330;-67
2022/09/03 05:59:12;;;;;;;;;7.33;7.33;;;;;20.19;75.84;100016.84;5017741;28;45442;-67
2022/09/03 06:01:42;;;;;;;;;6.33;5.67;;;;;20.16;75.31;100003.66;5018185;28;45490;-67
2022/09/03 06:04:10;;;;;;;;;7.67;7.00;;;;;20.27;75.06;100021.13;5018229;28;45293;-67
2022/09/03 06:06:40;;;;;;;;;6.00;5.67;;;;;20.37;75.02;100035.09;5016804;28;45436;-67
2022/09/03 06:09:09;;;;;;;;;7.00;7.00;;;;;20.36;75.24;100019.22;5017772;28;46615;-67
2022/09/03 06:11:38;;;;;;;;;7.67;7.67;;;;;20.41;74.98;100028.84;5016172;28;45494;-67
2022/09/03 06:14:08;;;;;;;;;8.33;6.67;;;;;20.41;74.99;100039.44;5017802;28;45381;-67
2022/09/03 06:16:39;;;;;;;;;7.67;7.00;;;;;20.41;74.90;100028.84;5017995;28;45399;-67
2022/09/03 06:19:08;;;;;;;;;6.33;6.33;;;;;20.48;74.37;100034.03;5016324;28;46389;-67
2022/09/03 06:21:41;;;;;;;;;7.00;7.00;;;;;20.53;74.35;100041.00;5015951;28;45474;-66
2022/09/03 06:24:09;;;;;;;;;7.67;7.33;;;;;20.56;74.09;100030.31;5016091;28;45561;-67
2022/09/03 06:26:35;;;;;;;;;8.67;8.67;;;;;20.58;73.95;100032.94;5013372;28;45498;-66
2022/09/03 06:29:00;;;;;;;;;7.33;7.00;;;;;20.59;74.21;100032.06;5030494;28;46452;-67
2022/09/03 06:31:26;;;;;;;;;10.00;9.67;;;;;20.58;74.08;100035.59;5015585;28;45404;-74
2022/09/03 06:33:53;;;;;;;;;8.33;7.00;;;;;20.55;73.76;100035.63;5015620;28;45428;-66
2022/09/03 06:36:21;;;;;;;;;7.00;7.00;;;;;20.66;73.46;100046.97;5020408;28;45485;-67
2022/09/03 06:38:50;;;;;;;;;7.67;6.67;;;;;20.63;73.87;100050.56;5023953;28;46120;-67
2022/09/03 06:41:22;;;;;;;;;7.33;7.33;;;;;20.59;73.52;100037.34;5016471;28;45533;-67
2022/09/03 06:43:48;;;;;;;;;9.00;8.00;;;;;20.67;73.49;100043.38;5016998;28;45753;-67
2022/09/03 06:46:17;;;;;;;;;6.67;6.67;;;;;20.75;73.24;100049.44;5017374;28;45398;-67
2022/09/03 06:48:42;;;;;;;;;11.33;9.67;;;;;20.72;73.70;100044.19;5017062;28;46209;-67
2022/09/03 06:51:22;;;;;;;;;7.00;7.00;;;;;20.82;73.69;100056.38;5016930;28;45744;-67
2022/09/03 06:53:53;;;;;;;;;8.00;7.67;;;;;20.85;73.78;100061.63;5017019;28;45402;-67
2022/09/03 06:56:27;;;;;;;;;7.00;6.00;;;;;20.95;73.00;100056.09;5032551;28;45674;-67
2022/09/03 06:58:54;;;;;;;;;8.33;8.00;;;;;21.10;73.05;100062.91;5032086;28;46318;-67
2022/09/03 07:01:24;;;;;;;;;9.00;9.00;;;;;21.13;72.64;100053.09;5016571;28;45331;-67
2022/09/03 07:03:55;;;;;;;;;10.00;10.00;;;;;21.11;72.89;100062.88;5017056;28;45256;-67
2022/09/03 07:06:23;;;;;;;;;9.33;9.00;;;;;21.01;72.75;100048.03;5020389;28;45706;-67
2022/09/03 07:08:49;;;;;;;;;10.00;9.67;;;;;21.01;72.49;100045.38;5041240;28;45447;-67
2022/09/03 07:11:18;;;;;;;;;8.00;7.33;;;;;21.18;72.65;100063.59;5015110;28;45431;-68
2022/09/03 07:13:50;;;;;;;;;8.33;7.33;;;;;21.33;71.41;100070.34;5015605;28;45477;-67
2022/09/03 07:16:17;;;;;;;;;10.00;9.00;;;;;21.40;71.33;100066.66;5014434;28;45622;-68
2022/09/03 07:18:44;;;;;;;;;8.67;8.00;;;;;21.42;71.38;100062.19;5015408;28;46141;-67
2022/09/03 07:21:12;;;;;;;;;11.67;9.33;;;;;21.51;71.39;100064.69;5015614;28;45416;-67
2022/09/03 07:23:39;;;;;;;;;12.33;11.33;;;;;21.47;71.07;100055.03;5017524;28;45345;-67
2022/09/03 07:26:08;;;;;;;;;10.33;10.00;;;;;21.64;70.96;100070.59;5019286;28;45511;-74
2022/09/03 07:28:36;;;;;;;;;10.33;9.67;;;;;21.78;70.28;100070.25;5018551;28;46243;-73
2022/09/03 07:31:13;;;;;;;;;9.00;9.00;;;;;21.96;69.49;100068.94;5018999;28;45480;-71
2022/09/03 07:33:39;;;;;;;;;9.00;8.67;;;;;22.09;68.52;100065.06;4990741;28;45395;-73
2022/09/03 07:36:08;;;;;;;;;9.00;8.33;;;;;22.21;68.70;100070.09;5032685;28;45405;-73
2022/09/03 07:38:34;;;;;;;;;9.33;8.33;;;;;22.23;68.59;100052.28;5018852;28;45387;-68
2022/09/03 07:41:02;;;;;;;;;9.00;8.67;;;;;22.33;67.11;100076.91;5018460;28;45376;-68
2022/09/03 07:43:29;;;;;;;;;11.00;10.00;;;;;22.12;67.57;100043.69;5018923;28;45426;-68
2022/09/03 07:45:55;;;;;;;;;10.00;10.00;;;;;22.40;67.09;100078.50;5018860;28;45375;-67
2022/09/03 07:48:22;;;;;;;;;11.67;9.67;;;;;22.43;66.76;100053.59;5033494;28;47936;-67
2022/09/03 07:50:47;;;;;;;;;9.67;9.00;;;;;22.70;66.85;100078.59;5017375;28;45577;-68
2022/09/03 07:53:16;;;;;;;;;12.00;11.00;;;;;22.74;65.76;100060.72;5017421;28;45362;-68
2022/09/03 07:55:43;;;;;;;;;9.33;8.33;;;;;22.89;65.23;100080.75;5018143;28;45474;-71
2022/09/03 07:58:11;;;;;;;;;8.00;8.00;;;;;23.00;64.02;100079.53;5015632;28;46355;-75
2022/09/03 08:00:37;;;;;;;;;10.00;9.00;;;;;23.10;63.54;100085.50;5017813;28;45544;-68
2022/09/03 08:03:07;;;;;;;;;6.67;6.33;;;;;23.34;62.45;100088.38;5017538;28;45538;-67
2022/09/03 08:05:34;;;;;;;;;9.33;9.00;;;;;23.45;61.27;100066.69;5018500;28;45860;-68
2022/09/03 08:08:00;;;;;;;;;7.33;6.33;;;;;23.82;60.01;100090.47;5013978;28;46238;-70
2022/09/03 08:10:29;;;;;;;;;8.00;7.00;;;;;23.81;60.04;100091.34;5016027;28;45740;-68
2022/09/03 08:12:55;;;;;;;;;8.33;7.33;;;;;23.80;59.58;100079.81;5018183;28;45539;-68
2022/09/03 08:15:21;;;;;;;;;6.00;5.67;;;;;24.02;60.52;100093.34;5017249;28;45359;-71
2022/09/03 08:17:46;;;;;;;;;7.67;7.67;;;;;24.58;58.51;100094.16;5017426;28;45709;-68
2022/09/03 08:20:12;;;;;;;;;8.00;7.67;;;;;24.88;57.52;100089.53;5018307;28;45556;-68
2022/09/03 08:22:37;;;;;;;;;7.00;7.00;;;;;24.99;56.80;100078.47;5019037;28;45450;-67
2022/09/03 08:25:03;;;;;;;;;6.33;6.33;;;;;25.50;56.75;100098.81;5034801;28;45468;-72
2022/09/03 08:27:30;;;;;;;;;7.00;6.67;;;;;25.85;55.85;100071.59;5018427;28;46486;-68
2022/09/03 08:29:56;;;;;;;;;8.33;7.33;;;;;26.48;53.70;100085.94;5018291;28;45453;-68
2022/09/03 08:32:21;;;;;;;;;6.67;6.00;;;;;26.78;52.98;100094.47;5018869;28;45489;-68
2022/09/03 08:34:47;;;;;;;;;8.33;8.00;;;;;27.02;50.43;100088.94;5016640;28;45443;-68
2022/09/03 08:37:13;;;;;;;;;7.00;6.33;;;;;27.40;49.42;100086.31;5019018;28;46182;-68
2022/09/03 08:39:38;;;;;;;;;8.33;8.00;;;;;27.38;49.25;100072.97;5019349;28;45346;-68
2022/09/03 08:42:11;;;;;;;;;7.33;7.00;;;;;27.71;50.02;100103.63;5017979;28;45534;-68
2022/09/03 08:44:54;;;;;;;;;8.00;6.33;;;;;27.84;49.88;100098.56;5019414;28;45396;-69
2022/09/03 08:47:39;;;;;;;;;7.67;7.67;;;;;27.88;48.36;100095.66;5033984;28;45672;-68
2022/09/03 08:50:16;;;;;;;;;8.00;7.00;;;;;27.89;49.09;100091.16;5018724;28;45506;-68
2022/09/03 08:52:47;;;;;;;;;8.00;8.00;;;;;27.88;47.51;100097.50;5019205;28;45452;-69
2022/09/03 08:55:35;;;;;;;;;6.67;6.67;;;;;27.98;47.89;100093.41;5019261;28;45285;-68
2022/09/03 08:58:19;;;;;;;;;7.00;6.00;;;;;28.46;46.82;100089.16;5018490;28;45391;-68
2022/09/03 09:00:47;;;;;;;;;6.67;6.67;;;;;29.14;46.01;100094.59;5019040;28;45368;-68
2022/09/03 09:03:30;;;;;;;;;8.00;8.00;;;;;29.92;42.81;100077.72;5019181;28;45225;-69
2022/09/03 09:06:11;;;;;;;;;6.00;6.00;;;;;30.36;42.00;100087.72;5018928;28;45449;-68
2022/09/03 09:09:01;;;;;;;;;6.33;6.33;;;;;30.91;42.60;100095.19;5018232;28;45463;-68
2022/09/03 09:11:48;;;;;;;;;7.33;6.00;;;;;31.50;42.14;100097.81;5018561;28;45549;-68
2022/09/03 09:14:49;;;;;;;;;7.00;6.50;;;;;31.65;41.72;100095.06;5018459;28;45452;-68
2022/09/03 09:17:21;;;;;;;;;5.33;5.33;;;;;32.23;41.10;100096.66;5017254;28;45503;-68
2022/09/03 09:20:09;;;;;;;;;6.00;5.33;;;;;33.13;39.75;100085.09;5017876;28;45298;-69
2022/09/03 09:22:43;;;;;;;;;7.00;6.67;;;;;34.15;37.58;100098.38;5016780;28;45418;-72
2022/09/03 09:25:15;;;;;;;;;8.00;6.33;;;;;34.84;36.38;100103.06;5015711;28;45546;-69
2022/09/03 09:27:55;;;;;;;;;5.67;5.67;;;;;34.45;35.65;100102.44;5016808;28;45482;-73
2022/09/03 09:30:21;;;;;;;;;8.00;8.00;;;;;34.25;36.23;100085.84;5014087;28;45504;-70
2022/09/03 09:32:46;;;;;;;;;5.67;5.67;;;;;33.38;38.15;100085.03;5014204;28;45387;-69
2022/09/03 09:35:14;;;;;;;;;7.67;7.00;;;;;32.95;38.50;100103.47;5016356;28;45816;-69
2022/09/03 09:37:48;;;;;;;;;7.33;6.67;;;;;32.22;39.82;100089.50;5016103;28;45688;-71
2022/09/03 09:40:34;;;;;;;;;8.00;7.67;;;;;31.62;41.40;100104.25;5014700;28;45410;-69
2022/09/03 09:43:15;;;;;;;;;5.67;5.00;;;;;31.07;41.95;100089.69;5015198;28;45612;-70
2022/09/03 09:45:43;;;;;;;;;5.00;5.00;;;;;30.68;42.48;100099.28;5014188;28;45573;-69
2022/09/03 09:48:15;;;;;;;;;4.67;4.67;;;;;30.13;43.26;100087.25;5015845;28;45427;-68
2022/09/03 09:50:41;;;;;;;;;7.33;5.67;;;;;29.84;43.73;100080.84;5015196;28;46605;-70
2022/09/03 09:53:16;;;;;;;;;5.00;5.00;;;;;29.60;44.57;100090.31;5015882;28;45426;-69
2022/09/03 09:55:56;;;;;;;;;14.33;12.00;;;;;29.42;45.04;100094.91;5030560;28;45545;-72
2022/09/03 09:58:29;;;;;;;;;5.33;4.33;;;;;29.12;45.72;100095.63;4998918;28;45506;-71
2022/09/03 10:01:02;;;;;;;;;5.33;5.00;;;;;28.83;46.57;100092.66;5014896;28;46095;-69
2022/09/03 10:03:33;;;;;;;;;4.00;4.00;;;;;28.66;46.88;100098.91;5015840;28;45356;-70
2022/09/03 10:09:14;;;;;;;;;4.00;4.00;;;;;28.55;47.15;100072.63;5000498;28;45348;-70
2022/09/03 10:11:44;;;;;;;;;6.67;6.00;;;;;28.59;46.88;100078.72;5015336;28;45501;-69
2022/09/03 10:14:25;;;;;;;;;8.00;7.00;;;;;28.35;47.34;100079.00;5013853;28;45531;-69
2022/09/03 10:17:00;;;;;;;;;5.33;5.00;;;;;28.38;48.01;100069.03;5015529;28;45679;-69
2022/09/03 10:20:29;;;;;;;;;5.00;5.00;;;;;28.66;47.29;100079.25;5014895;28;45568;-69
2022/09/03 10:23:00;;;;;;;;;5.00;4.00;;;;;28.84;46.74;100064.81;4951570;28;45749;-68
2022/09/03 10:25:37;;;;;;;;;4.33;4.00;;;;;29.08;46.02;100069.81;5015162;28;45440;-68
2022/09/03 10:28:06;;;;;;;;;4.67;4.33;;;;;28.88;45.69;100054.78;5015498;28;45513;-69
2022/09/03 10:30:46;;;;;;;;;5.33;5.33;;;;;28.69;46.62;100044.13;5015250;28;45451;-69
2022/09/03 10:33:29;;;;;;;;;6.33;6.33;;;;;28.25;46.75;99983.72;5015268;28;46220;-70
2022/09/03 10:36:14;;;;;;;;;6.00;5.00;;;;;28.63;46.48;100052.50;5003545;28;45476;-69
2022/09/03 10:38:41;;;;;;;;;4.00;4.00;;;;;28.39;46.63;100038.53;5014010;28;45614;-68
2022/09/03 10:41:09;;;;;;;;;5.67;5.67;;;;;28.41;47.62;100064.38;5016500;28;45458;-68
2022/09/03 10:44:02;;;;;;;;;4.33;4.33;;;;;28.03;47.74;100064.50;5016189;28;45478;-68
2022/09/03 10:46:42;;;;;;;;;4.33;4.33;;;;;27.86;48.00;100061.75;5016167;28;45322;-68
2022/09/03 10:49:10;;;;;;;;;5.00;4.00;;;;;27.66;48.57;100055.56;5015682;28;45290;-68
2022/09/03 10:51:41;;;;;;;;;6.00;5.00;;;;;27.53;48.71;100039.16;5016076;28;45534;-70
2022/09/03 10:54:16;;;;;;;;;6.00;5.00;;;;;27.53;48.79;100063.31;5015838;28;45265;-70
2022/09/03 10:57:09;;;;;;;;;5.33;4.67;;;;;27.25;49.31;100055.72;5013860;28;45510;-72
2022/09/03 10:59:43;;;;;;;;;11.67;11.00;;;;;26.97;50.40;100062.31;5015073;28;45284;-71
2022/09/03 11:02:39;;;;;;;;;7.00;7.00;;;;;26.80;50.50;100054.19;5016263;28;45554;-70
2022/09/03 11:05:18;;;;;;;;;4.67;4.67;;;;;26.73;50.89;100064.31;5014219;28;45337;-71
2022/09/03 11:08:12;;;;;;;;;5.00;5.00;;;;;26.55;51.52;100065.09;5015872;28;45621;-73
2022/09/03 11:10:43;;;;;;;;;5.00;5.00;;;;;26.30;51.87;100038.50;4967485;28;45884;-72
2022/09/03 11:13:30;;;;;;;;;5.00;5.00;;;;;26.37;52.24;100061.41;5011804;28;45521;-72
2022/09/03 11:16:00;;;;;;;;;5.33;5.33;;;;;26.29;52.10;100059.06;4996736;28;46225;-72
2022/09/03 11:18:39;;;;;;;;;7.00;5.00;;;;;26.22;52.28;100062.91;4996652;28;45319;-72
2022/09/03 11:21:09;;;;;;;;;6.00;5.00;;;;;26.17;52.57;100060.44;4996768;28;45214;-72
2022/09/03 11:23:42;;;;;;;;;5.67;5.00;;;;;26.13;53.07;100055.31;4995548;28;45574;-72
2022/09/03 11:26:11;;;;;;;;;6.33;6.00;;;;;25.96;53.12;100047.97;4996481;28;46147;-73
2022/09/03 11:28:44;;;;;;;;;6.33;6.00;;;;;26.03;52.89;100053.94;5011766;28;45530;-72
2022/09/03 11:31:22;;;;;;;;;6.00;6.00;;;;;26.01;53.01;100059.34;4996541;28;45415;-72
2022/09/03 11:34:00;;;;;;;;;5.67;5.00;;;;;25.95;53.54;100041.75;4996662;28;45256;-73
2022/09/03 11:36:33;;;;;;;;;6.00;5.00;;;;;26.07;52.79;100056.44;4995947;28;45657;-73
2022/09/03 11:38:59;;;;;;;;;7.00;7.00;;;;;26.02;53.27;100037.00;4996874;28;45237;-72
2022/09/03 11:41:33;;;;;;;;;5.00;5.00;;;;;26.19;53.08;100047.88;4996834;28;45512;-73
2022/09/03 11:44:19;;;;;;;;;8.00;5.00;;;;;26.10;53.15;100015.25;4995422;28;45282;-73
2022/09/03 11:46:56;;;;;;;;;6.00;5.00;;;;;26.33;53.16;100047.28;4996281;28;45583;-77
2022/09/03 11:49:28;;;;;;;;;5.33;5.00;;;;;26.17;52.57;100011.41;4996241;28;45639;-72
2022/09/03 11:52:03;;;;;;;;;7.00;6.33;;;;;26.21;52.76;100046.94;4996230;28;45346;-72